createdAt,value
2023-03-06T00:01:51.917Z,99491.63
2023-03-06T00:04:19.257Z,99483.13
2023-03-06T00:06:45.567Z,99489.53
2023-03-06T00:09:11.979Z,99479.12
2023-03-06T00:11:38.294Z,99490.25
2023-03-06T00:14:04.596Z,99490.03
2023-03-06T00:16:30.917Z,99489.69
2023-03-06T00:18:57.209Z,99481.66
2023-03-06T00:21:23.520Z,99478.00
2023-03-06T00:23:49.817Z,99483.50
2023-03-06T00:26:16.269Z,99478.53
2023-03-06T00:28:42.631Z,99471.47
2023-03-06T00:31:08.988Z,99475.03
2023-03-06T00:33:35.333Z,99471.03
2023-03-06T00:36:01.638Z,99470.84
2023-03-06T00:38:31.612Z,99469.75
2023-03-06T00:40:57.981Z,99463.62
2023-03-06T00:43:24.309Z,99462.13
2023-03-06T00:45:50.707Z,99463.06
2023-03-06T00:48:17.053Z,99458.69
2023-03-06T00:50:43.370Z,99450.63
2023-03-06T00:53:11.157Z,99451.78
2023-03-06T00:55:37.568Z,99456.88
2023-03-06T00:58:03.890Z,99453.53
2023-03-06T01:00:30.215Z,99451.06
2023-03-06T01:02:56.584Z,99450.81
2023-03-06T01:05:22.983Z,99448.44
2023-03-06T01:07:49.289Z,99445.66
2023-03-06T01:10:15.618Z,99442.84
2023-03-06T01:12:41.976Z,99443.09
2023-03-06T01:15:08.310Z,99439.28
2023-03-06T01:17:34.642Z,99431.06
2023-03-06T01:20:01.039Z,99433.59
2023-03-06T01:22:27.362Z,99432.00
2023-03-06T01:24:53.655Z,99428.13
2023-03-06T01:27:19.951Z,99430.25
2023-03-06T01:29:46.254Z,99424.56
2023-03-06T01:32:12.586Z,99417.50
2023-03-06T01:34:38.906Z,99421.00
2023-03-06T01:37:05.209Z,99407.53
2023-03-06T01:39:31.702Z,99414.22
2023-03-06T01:41:58.023Z,99415.84
2023-03-06T01:44:24.370Z,99408.50
2023-03-06T01:46:50.685Z,99408.97
2023-03-06T01:49:17.017Z,99417.16
2023-03-06T01:51:43.342Z,99403.56
2023-03-06T01:54:09.718Z,99403.16
2023-03-06T01:56:36.087Z,99400.00
2023-03-06T01:59:02.427Z,99394.38
2023-03-06T02:01:28.845Z,99395.59
2023-03-06T02:03:55.183Z,99390.13
2023-03-06T02:06:22.027Z,99391.84
2023-03-06T02:08:48.369Z,99395.34
2023-03-06T02:11:14.729Z,99384.25
2023-03-06T02:13:41.106Z,99383.16
2023-03-06T02:16:08.784Z,99382.09
2023-03-06T02:18:35.152Z,99380.16
2023-03-06T02:21:01.489Z,99380.38
2023-03-06T02:23:27.802Z,99376.94
2023-03-06T02:25:54.107Z,99380.03
2023-03-06T02:28:20.480Z,99379.16
2023-03-06T02:30:47.083Z,99376.25
2023-03-06T02:33:13.437Z,99380.03
2023-03-06T02:35:39.769Z,99371.38
2023-03-06T02:38:06.104Z,99368.69
2023-03-06T02:40:32.425Z,99370.31
2023-03-06T02:42:58.751Z,99367.00
2023-03-06T02:45:25.111Z,99366.56
2023-03-06T02:47:51.422Z,99358.78
2023-03-06T02:50:17.731Z,99364.47
2023-03-06T02:52:44.075Z,99353.63
2023-03-06T02:55:10.392Z,99352.91
2023-03-06T02:57:36.768Z,99360.44
2023-03-06T03:00:03.162Z,99336.50
2023-03-06T03:02:29.511Z,99345.16
2023-03-06T03:04:55.906Z,99344.41
2023-03-06T03:07:22.229Z,99341.03
2023-03-06T03:09:48.610Z,99342.03
2023-03-06T03:12:14.930Z,99332.34
2023-03-06T03:14:41.227Z,99337.28
2023-03-06T03:17:07.529Z,99333.94
2023-03-06T03:19:33.873Z,99337.84
2023-03-06T03:22:00.214Z,99328.34
2023-03-06T03:24:26.592Z,99337.53
2023-03-06T03:26:53.080Z,99326.19
2023-03-06T03:29:19.397Z,99322.16
2023-03-06T03:31:45.729Z,99320.53
2023-03-06T03:34:12.051Z,99314.59
2023-03-06T03:36:38.335Z,99320.81
2023-03-06T03:39:04.654Z,99317.47
2023-03-06T03:41:31.002Z,99312.28
2023-03-06T03:43:57.333Z,99315.81
2023-03-06T03:46:23.683Z,99310.72
2023-03-06T03:48:50.048Z,99306.38
2023-03-06T03:51:16.686Z,99312.47
2023-03-06T03:53:43.051Z,99306.91
2023-03-06T03:56:09.365Z,99299.56
2023-03-06T03:58:35.667Z,99302.31
2023-03-06T04:01:02.012Z,99296.69
2023-03-06T04:03:28.325Z,99287.56
2023-03-06T04:05:55.537Z,99287.69
2023-03-06T04:08:21.896Z,99286.72
2023-03-06T04:10:48.196Z,99288.53
2023-03-06T04:13:14.569Z,99286.28
2023-03-06T04:15:40.876Z,99273.94
2023-03-06T04:18:07.196Z,99276.69
2023-03-06T04:20:33.546Z,99276.91
2023-03-06T04:22:59.893Z,99275.50
2023-03-06T04:25:26.243Z,99281.00
2023-03-06T04:27:52.601Z,99268.34
2023-03-06T04:30:18.940Z,99274.25
2023-03-06T04:32:45.321Z,99265.31
2023-03-06T04:35:12.178Z,99271.19
2023-03-06T04:37:38.505Z,99257.44
2023-03-06T04:40:04.830Z,99260.31
2023-03-06T04:42:31.393Z,99263.06
2023-03-06T04:44:57.697Z,99266.03
2023-03-06T04:47:24.089Z,99254.75
2023-03-06T04:49:50.422Z,99261.84
2023-03-06T04:52:16.754Z,99268.19
2023-03-06T04:54:43.232Z,99253.37
2023-03-06T04:57:09.596Z,99246.28
2023-03-06T04:59:38.743Z,99252.25
2023-03-06T05:02:05.506Z,99245.19
2023-03-06T05:04:31.805Z,99239.87
2023-03-06T05:06:58.118Z,99245.09
2023-03-06T05:09:24.447Z,99246.41
2023-03-06T05:11:50.771Z,99239.16
2023-03-06T05:14:17.111Z,99236.72
2023-03-06T05:16:43.558Z,99243.75
2023-03-06T05:19:09.950Z,99235.00
2023-03-06T05:21:36.269Z,99234.28
2023-03-06T05:24:02.556Z,99236.13
2023-03-06T05:26:28.910Z,99241.25
2023-03-06T05:28:55.509Z,99233.59
2023-03-06T05:31:21.840Z,99233.72
2023-03-06T05:33:48.196Z,99230.53
2023-03-06T05:36:14.534Z,99228.81
2023-03-06T05:38:40.890Z,99234.03
2023-03-06T05:41:07.198Z,99234.72
2023-03-06T05:43:33.529Z,99225.75
2023-03-06T05:45:59.858Z,99228.91
2023-03-06T05:48:26.206Z,99228.31
2023-03-06T05:50:52.514Z,99229.13
2023-03-06T05:53:18.869Z,99221.19
2023-03-06T05:55:45.249Z,99226.38
2023-03-06T05:58:11.578Z,99228.50
2023-03-06T06:00:37.937Z,99234.72
2023-03-06T06:03:04.355Z,99225.34
2023-03-06T06:05:30.715Z,99225.47
2023-03-06T06:07:57.024Z,99220.22
2023-03-06T06:10:23.323Z,99226.06
2023-03-06T06:12:49.652Z,99228.59
2023-03-06T06:15:15.984Z,99220.75
2023-03-06T06:17:42.336Z,99222.06
2023-03-06T06:20:08.666Z,99221.88
2023-03-06T06:22:34.988Z,99219.62
2023-03-06T06:25:01.295Z,99225.31
2023-03-06T06:27:27.629Z,99220.75
2023-03-06T06:29:53.956Z,99232.44
2023-03-06T06:32:20.438Z,99231.53
2023-03-06T06:34:46.806Z,99230.78
2023-03-06T06:37:13.113Z,99228.50
2023-03-06T06:39:39.456Z,99225.06
2023-03-06T06:42:28.933Z,99228.34
2023-03-06T06:44:52.401Z,99232.25
2023-03-06T06:47:23.089Z,99228.00
2023-03-06T06:49:51.116Z,99230.31
2023-03-06T06:52:18.961Z,99229.84
2023-03-06T06:54:45.353Z,99231.59
2023-03-06T06:57:11.753Z,99227.75
2023-03-06T06:59:38.064Z,99229.91
2023-03-06T07:02:04.476Z,99226.91
2023-03-06T07:04:30.798Z,99236.72
2023-03-06T07:06:57.162Z,99239.66
2023-03-06T07:09:23.783Z,99238.28
2023-03-06T07:11:50.135Z,99235.94
2023-03-06T07:14:16.525Z,99226.28
2023-03-06T07:16:42.892Z,99220.28
2023-03-06T07:19:09.261Z,99222.59
2023-03-06T07:21:35.631Z,99211.22
2023-03-06T07:24:01.937Z,99214.28
2023-03-06T07:26:28.260Z,99222.19
2023-03-06T07:28:55.068Z,99218.84
2023-03-06T07:31:22.259Z,99216.72
2023-03-06T07:33:48.638Z,99210.19
2023-03-06T07:36:15.021Z,99204.09
2023-03-06T07:38:41.399Z,99209.50
2023-03-06T07:41:13.312Z,99198.97
2023-03-06T07:43:39.635Z,99209.03
2023-03-06T07:46:05.970Z,99212.78
2023-03-06T07:48:32.362Z,99211.06
2023-03-06T07:50:58.722Z,99211.78
2023-03-06T07:53:26.026Z,99208.06
2023-03-06T07:55:52.354Z,99207.41
2023-03-06T07:58:18.676Z,99212.62
2023-03-06T08:00:45.002Z,99204.53
2023-03-06T08:03:11.425Z,99208.13
2023-03-06T08:05:37.808Z,99207.69
2023-03-06T08:08:04.148Z,99222.44
2023-03-06T08:10:30.465Z,99212.38
2023-03-06T08:12:56.835Z,99210.75
2023-03-06T08:15:23.168Z,99209.28
2023-03-06T08:17:49.527Z,99217.41
2023-03-06T08:20:16.243Z,99210.91
2023-03-06T08:22:42.657Z,99212.22
2023-03-06T08:25:09.002Z,99214.81
2023-03-06T08:27:35.323Z,99211.19
2023-03-06T08:30:01.629Z,99218.88
2023-03-06T08:32:28.136Z,99214.78
2023-03-06T08:34:54.474Z,99215.31
2023-03-06T08:37:20.888Z,99215.47
2023-03-06T08:39:47.298Z,99215.47
2023-03-06T08:42:14.536Z,99212.53
2023-03-06T08:44:40.845Z,99223.44
2023-03-06T08:47:07.353Z,99219.19
2023-03-06T08:49:33.776Z,99214.63
2023-03-06T08:52:00.156Z,99218.72
2023-03-06T08:54:26.464Z,99214.47
2023-03-06T08:56:53.258Z,99217.91
2023-03-06T08:59:19.571Z,99225.69
2023-03-06T09:01:46.745Z,99216.41
2023-03-06T09:04:13.057Z,99213.78
2023-03-06T09:06:39.446Z,99222.63
2023-03-06T09:09:05.985Z,99211.91
2023-03-06T09:11:32.354Z,99215.78
2023-03-06T09:13:58.756Z,99213.66
2023-03-06T09:16:25.218Z,99209.16
2023-03-06T09:18:54.108Z,99214.78
2023-03-06T09:21:20.454Z,99217.09
2023-03-06T09:23:46.824Z,99209.47
2023-03-06T09:26:13.142Z,99220.03
2023-03-06T09:28:39.450Z,99207.03
2023-03-06T09:31:05.790Z,99216.94
2023-03-06T09:33:33.384Z,99201.81
2023-03-06T09:35:59.834Z,99207.50
2023-03-06T09:38:26.278Z,99202.06
2023-03-06T09:40:52.645Z,99202.16
2023-03-06T09:43:18.941Z,99200.31
2023-03-06T09:45:45.284Z,99204.91
2023-03-06T09:48:11.633Z,99192.94
2023-03-06T09:50:37.975Z,99193.22
2023-03-06T09:53:04.339Z,99191.03
2023-03-06T09:55:30.678Z,99191.28
2023-03-06T09:57:57.094Z,99187.75
2023-03-06T10:00:23.415Z,99187.50
2023-03-06T10:02:49.850Z,99183.31
2023-03-06T10:05:16.301Z,99182.25
2023-03-06T10:07:43.018Z,99176.59
2023-03-06T10:10:09.341Z,99176.47
2023-03-06T10:12:35.692Z,99177.94
2023-03-06T10:15:02.021Z,99176.19
2023-03-06T10:17:28.401Z,99164.91
2023-03-06T10:19:54.724Z,99168.09
2023-03-06T10:22:21.091Z,99165.97
2023-03-06T10:24:47.415Z,99169.19
2023-03-06T10:27:13.758Z,99172.06
2023-03-06T10:29:41.058Z,99156.78
2023-03-06T10:32:07.462Z,99158.38
2023-03-06T10:34:33.853Z,99163.94
2023-03-06T10:37:00.208Z,99162.03
2023-03-06T10:39:28.441Z,99163.59
2023-03-06T10:41:54.764Z,99169.34
2023-03-06T10:44:21.754Z,99160.69
2023-03-06T10:46:48.211Z,99166.66
2023-03-06T10:49:14.533Z,99167.28
2023-03-06T10:51:40.892Z,99170.22
2023-03-06T10:54:07.206Z,99165.06
2023-03-06T10:56:33.566Z,99160.31
2023-03-06T10:58:59.878Z,99155.63
2023-03-06T11:01:26.347Z,99159.59
2023-03-06T11:03:54.186Z,99154.25
2023-03-06T11:06:20.516Z,99155.31
2023-03-06T11:08:46.821Z,99148.97
2023-03-06T11:11:13.112Z,99149.97
2023-03-06T11:13:39.432Z,99147.41
2023-03-06T11:16:05.902Z,99146.66
2023-03-06T11:18:35.166Z,99144.41
2023-03-06T11:21:01.471Z,99146.75
2023-03-06T11:23:27.792Z,99152.69
2023-03-06T11:25:54.111Z,99148.50
2023-03-06T11:28:20.429Z,99141.84
2023-03-06T11:30:46.875Z,99138.72
2023-03-06T11:33:13.213Z,99142.06
2023-03-06T11:35:39.610Z,99143.94
2023-03-06T11:38:07.040Z,99147.25
2023-03-06T11:40:33.494Z,99154.37
2023-03-06T11:42:59.804Z,99146.87
2023-03-06T11:45:26.242Z,99158.12
2023-03-06T11:47:52.601Z,99143.44
2023-03-06T11:50:19.016Z,99144.03
2023-03-06T11:52:45.400Z,99138.53
2023-03-06T11:55:11.720Z,99128.59
2023-03-06T11:57:38.034Z,99133.31
2023-03-06T12:00:04.391Z,99139.59
2023-03-06T12:02:30.803Z,99133.50
2023-03-06T12:04:57.203Z,99134.41
2023-03-06T12:07:23.576Z,99123.34
2023-03-06T12:09:49.898Z,99125.25
2023-03-06T12:14:42.531Z,99106.63
2023-03-06T12:17:08.892Z,99114.75
2023-03-06T12:19:35.204Z,99113.03
2023-03-06T12:22:01.771Z,99110.25
2023-03-06T12:24:28.065Z,99108.25
2023-03-06T12:26:54.392Z,99106.16
2023-03-06T12:29:20.738Z,99094.50
2023-03-06T12:31:47.200Z,99100.75
2023-03-06T12:34:13.580Z,99093.44
2023-03-06T12:36:39.967Z,99100.69
2023-03-06T12:39:06.307Z,99093.87
2023-03-06T12:41:32.631Z,99098.28
2023-03-06T12:43:59.012Z,99094.00
2023-03-06T12:46:25.348Z,99090.06
2023-03-06T12:48:51.865Z,99094.84
2023-03-06T12:51:18.210Z,99096.22
2023-03-06T12:53:44.525Z,99094.09
2023-03-06T12:56:10.867Z,99100.81
2023-03-06T12:58:37.214Z,99090.50
2023-03-06T13:01:06.040Z,99097.72
2023-03-06T13:03:32.446Z,99087.13
2023-03-06T13:05:58.761Z,99089.09
2023-03-06T13:08:25.365Z,99103.16
2023-03-06T13:10:51.710Z,99100.22
2023-03-06T13:13:18.083Z,99098.34
2023-03-06T13:15:45.603Z,99101.34
2023-03-06T13:18:11.962Z,99103.28
2023-03-06T13:20:38.588Z,99103.78
2023-03-06T13:23:04.949Z,99111.09
2023-03-06T13:25:32.672Z,99116.25
2023-03-06T13:27:59.010Z,99107.47
2023-03-06T13:30:27.233Z,99110.72
2023-03-06T13:32:53.648Z,99103.47
2023-03-06T13:35:20.077Z,99115.94
2023-03-06T13:37:46.481Z,99100.72
2023-03-06T13:40:12.794Z,99103.28
2023-03-06T13:42:39.778Z,99099.53
2023-03-06T13:45:06.140Z,99094.34
2023-03-06T13:47:32.520Z,99094.63
2023-03-06T13:49:58.861Z,99088.63
2023-03-06T13:52:25.392Z,99089.88
2023-03-06T13:54:51.695Z,99083.47
2023-03-06T13:57:18.020Z,99087.31
2023-03-06T13:59:44.320Z,99091.41
2023-03-06T14:02:10.636Z,99092.91
2023-03-06T14:04:36.994Z,99079.22
2023-03-06T14:07:05.478Z,99074.94
2023-03-06T14:09:32.532Z,99064.22
2023-03-06T14:11:58.920Z,99069.28
2023-03-06T14:14:25.236Z,99062.69
2023-03-06T14:16:53.590Z,99065.00
2023-03-06T14:19:20.101Z,99074.72
2023-03-06T14:21:46.493Z,99064.94
2023-03-06T14:24:12.959Z,99061.56
2023-03-06T14:26:39.295Z,99065.34
2023-03-06T14:29:05.613Z,99067.91
2023-03-06T14:31:32.060Z,99076.28
2023-03-06T14:33:58.644Z,99064.19
2023-03-06T14:36:24.977Z,99071.41
2023-03-06T14:38:51.311Z,99068.97
2023-03-06T14:41:17.645Z,99071.25
2023-03-06T14:43:43.956Z,99065.69
2023-03-06T14:46:10.388Z,99069.47
2023-03-06T14:48:38.572Z,99063.69
2023-03-06T14:51:04.912Z,99064.69
2023-03-06T14:53:31.344Z,99058.66
2023-03-06T14:55:59.027Z,99059.53
2023-03-06T14:58:25.339Z,99059.19
2023-03-06T15:00:51.736Z,99060.62
2023-03-06T15:03:18.264Z,99059.59
2023-03-06T15:05:44.642Z,99058.69
2023-03-06T15:08:11.266Z,99056.47
2023-03-06T15:10:37.649Z,99055.34
2023-03-06T15:13:03.966Z,99058.78
2023-03-06T15:15:30.340Z,99043.53
2023-03-06T15:17:56.726Z,99053.31
2023-03-06T15:20:23.028Z,99049.41
2023-03-06T15:22:49.347Z,99052.59
2023-03-06T15:25:15.655Z,99061.31
2023-03-06T15:27:41.967Z,99053.25
2023-03-06T15:30:08.287Z,99048.22
2023-03-06T15:32:34.744Z,99046.81
2023-03-06T15:35:01.099Z,99048.25
2023-03-06T15:37:27.681Z,99056.09
2023-03-06T15:39:53.991Z,99041.75
2023-03-06T15:42:20.484Z,99052.84
2023-03-06T15:44:46.839Z,99047.97
2023-03-06T15:47:13.163Z,99048.09
2023-03-06T15:49:39.518Z,99039.31
2023-03-06T15:52:05.850Z,99043.25
2023-03-06T15:54:33.107Z,99045.81
2023-03-06T15:56:59.550Z,99047.66
2023-03-06T15:59:26.116Z,99048.22
2023-03-06T16:01:52.461Z,99047.53
2023-03-06T16:04:18.975Z,99051.25
2023-03-06T16:06:45.935Z,99051.62
2023-03-06T16:09:12.521Z,99072.97
2023-03-06T16:11:44.081Z,99075.19
2023-03-06T16:14:10.569Z,99090.91
2023-03-06T16:16:36.960Z,99092.25
2023-03-06T16:19:04.118Z,99093.97
2023-03-06T16:21:31.380Z,99105.97
2023-03-06T16:23:57.680Z,99107.91
2023-03-06T16:26:24.006Z,99099.91
2023-03-06T16:28:50.320Z,99107.38
2023-03-06T16:31:16.698Z,99100.50
2023-03-06T16:33:43.025Z,99100.66
2023-03-06T16:36:09.382Z,99104.28
2023-03-06T16:38:35.690Z,99107.41
2023-03-06T16:41:01.985Z,99110.66
2023-03-06T16:43:28.355Z,99104.72
2023-03-06T16:45:54.753Z,99112.84
2023-03-06T16:48:21.203Z,99113.00
2023-03-06T16:50:47.600Z,99111.81
2023-03-06T16:53:14.039Z,99108.28
2023-03-06T16:55:40.352Z,99094.28
2023-03-06T16:58:08.662Z,99105.31
2023-03-06T17:00:34.960Z,99097.41
2023-03-06T17:03:01.342Z,99100.31
2023-03-06T17:05:27.963Z,99094.81
2023-03-06T17:07:54.281Z,99096.53
2023-03-06T17:10:22.815Z,99096.25
2023-03-06T17:12:49.355Z,99088.81
2023-03-06T17:15:15.801Z,99092.06
2023-03-06T17:17:42.261Z,99097.56
2023-03-06T17:20:08.595Z,99097.75
2023-03-06T17:22:35.394Z,99101.72
2023-03-06T17:25:01.752Z,99100.28
2023-03-06T17:27:28.039Z,99100.94
2023-03-06T17:29:54.355Z,99103.53
2023-03-06T17:32:20.741Z,99110.19
2023-03-06T17:34:47.066Z,99113.28
2023-03-06T17:37:13.390Z,99101.63
2023-03-06T17:39:39.743Z,99113.28
2023-03-06T17:42:06.587Z,99119.44
2023-03-06T17:44:32.919Z,99117.00
2023-03-06T17:46:59.261Z,99115.25
2023-03-06T17:49:25.602Z,99125.94
2023-03-06T17:51:51.944Z,99125.44
2023-03-06T17:54:18.345Z,99138.38
2023-03-06T17:56:44.671Z,99129.66
2023-03-06T17:59:11.004Z,99132.13
2023-03-06T18:01:37.391Z,99131.81
2023-03-06T18:04:03.931Z,99135.88
2023-03-06T18:06:30.407Z,99134.56
2023-03-06T18:08:56.731Z,99139.41
2023-03-06T18:11:23.094Z,99125.63
2023-03-06T18:13:49.417Z,99126.44
2023-03-06T18:16:15.793Z,99134.88
2023-03-06T18:18:42.237Z,99133.56
2023-03-06T18:21:09.189Z,99130.19
2023-03-06T18:23:36.150Z,99135.53
2023-03-06T18:26:02.530Z,99131.78
2023-03-06T18:28:30.806Z,99134.53
2023-03-06T18:30:57.161Z,99145.41
2023-03-06T18:33:23.470Z,99131.91
2023-03-06T18:35:49.807Z,99138.72
2023-03-06T18:38:16.174Z,99139.37
2023-03-06T18:40:42.499Z,99140.22
2023-03-06T18:43:08.874Z,99143.16
2023-03-06T18:45:35.229Z,99146.59
2023-03-06T18:48:01.616Z,99153.28
2023-03-06T18:50:29.601Z,99152.59
2023-03-06T18:52:55.927Z,99147.63
2023-03-06T18:55:22.219Z,99139.09
2023-03-06T18:57:48.544Z,99141.63
2023-03-06T19:00:16.621Z,99153.47
2023-03-06T19:02:42.938Z,99144.84
2023-03-06T19:05:09.261Z,99147.00
2023-03-06T19:07:35.610Z,99147.84
2023-03-06T19:10:01.938Z,99141.97
2023-03-06T19:12:28.256Z,99147.91
2023-03-06T19:14:54.578Z,99151.66
2023-03-06T19:17:20.888Z,99152.31
2023-03-06T19:19:47.223Z,99151.03
2023-03-06T19:22:13.526Z,99144.91
2023-03-06T19:24:39.889Z,99150.22
2023-03-06T19:27:06.244Z,99147.28
2023-03-06T19:29:33.522Z,99142.19
2023-03-06T19:32:00.028Z,99144.59
2023-03-06T19:34:26.385Z,99145.09
2023-03-06T19:36:52.786Z,99139.72
2023-03-06T19:39:19.160Z,99148.19
2023-03-06T19:41:45.473Z,99142.44
2023-03-06T19:44:13.068Z,99146.34
2023-03-06T19:46:40.799Z,99151.38
2023-03-06T19:49:11.889Z,99149.47
2023-03-06T19:51:38.215Z,99135.69
2023-03-06T19:54:04.517Z,99137.34
2023-03-06T19:56:31.983Z,99150.16
2023-03-06T19:58:58.354Z,99144.62
2023-03-06T20:01:25.127Z,99141.06
2023-03-06T20:03:52.210Z,99143.78
2023-03-06T20:06:18.646Z,99136.50
2023-03-06T20:08:45.014Z,99138.75
2023-03-06T20:11:11.363Z,99137.84
2023-03-06T20:13:40.932Z,99138.81
2023-03-06T20:16:11.000Z,99145.16
2023-03-06T20:18:37.338Z,99137.06
2023-03-06T20:21:03.730Z,99134.00
2023-03-06T20:23:30.045Z,99140.50
2023-03-06T20:25:56.578Z,99138.72
2023-03-06T20:28:22.943Z,99146.03
2023-03-06T20:30:49.477Z,99147.16
2023-03-06T20:33:16.831Z,99137.91
2023-03-06T20:35:43.234Z,99137.75
2023-03-06T20:38:09.627Z,99143.88
2023-03-06T20:40:35.956Z,99132.22
2023-03-06T20:43:02.303Z,99134.31
2023-03-06T20:45:28.591Z,99132.50
2023-03-06T20:47:56.349Z,99125.37
2023-03-06T20:50:22.658Z,99124.72
2023-03-06T20:52:48.996Z,99125.78
2023-03-06T20:55:15.496Z,99135.94
2023-03-06T20:57:41.979Z,99127.50
2023-03-06T21:00:09.154Z,99130.09
2023-03-06T21:02:35.575Z,99126.91
2023-03-06T21:05:03.016Z,99124.19
2023-03-06T21:07:29.356Z,99116.75
2023-03-06T21:09:55.704Z,99112.19
2023-03-06T21:12:22.024Z,99116.87
2023-03-06T21:14:48.360Z,99109.06
2023-03-06T21:17:17.778Z,99103.41
2023-03-06T21:19:44.380Z,99092.75
2023-03-06T21:22:10.802Z,99096.50
2023-03-06T21:24:37.184Z,99106.03
2023-03-06T21:27:03.748Z,99094.37
2023-03-06T21:29:30.057Z,99096.22
2023-03-06T21:31:56.369Z,99083.72
2023-03-06T21:34:22.724Z,99087.44
2023-03-06T21:36:49.263Z,99092.94
2023-03-06T21:39:15.734Z,99091.19
2023-03-06T21:41:42.271Z,99090.38
2023-03-06T21:44:08.726Z,99088.41
2023-03-06T21:46:35.136Z,99081.16
2023-03-06T21:49:01.474Z,99081.16
2023-03-06T21:51:27.895Z,99080.19
2023-03-06T21:53:54.377Z,99084.72
2023-03-06T21:56:20.843Z,99071.72
2023-03-06T21:58:47.352Z,99073.84
2023-03-06T22:01:13.884Z,99075.12
2023-03-06T22:03:40.196Z,99077.53
2023-03-06T22:06:06.666Z,99074.41
2023-03-06T22:08:33.903Z,99077.63
2023-03-06T22:11:03.386Z,99068.47
2023-03-06T22:13:29.767Z,99061.63
2023-03-06T22:15:56.113Z,99065.19
2023-03-06T22:18:22.435Z,99067.12
2023-03-06T22:20:48.788Z,99066.13
2023-03-06T22:23:15.178Z,99060.19
2023-03-06T22:25:41.512Z,99055.16
2023-03-06T22:28:07.851Z,99064.75
2023-03-06T22:30:34.188Z,99059.31
2023-03-06T22:33:00.580Z,99058.16
2023-03-06T22:35:26.902Z,99049.91
2023-03-06T22:37:53.296Z,99056.72
2023-03-06T22:40:19.615Z,99050.19
2023-03-06T22:42:45.975Z,99046.66
2023-03-06T22:45:12.276Z,99044.41
2023-03-06T22:47:38.594Z,99042.28
2023-03-06T22:50:04.994Z,99040.19
2023-03-06T22:52:31.312Z,99035.97
2023-03-06T22:54:58.022Z,99036.66
2023-03-06T22:57:24.341Z,99029.03
2023-03-06T22:59:50.653Z,99031.34
2023-03-06T23:02:16.970Z,99045.50
2023-03-06T23:04:43.388Z,99039.47
2023-03-06T23:07:09.860Z,99042.88
2023-03-06T23:09:36.211Z,99042.09
2023-03-06T23:12:02.540Z,99039.00
2023-03-06T23:14:28.860Z,99035.91
2023-03-06T23:16:55.195Z,99035.03
2023-03-06T23:19:21.493Z,99026.66
2023-03-06T23:21:47.779Z,99027.03
2023-03-06T23:24:14.134Z,99024.84
2023-03-06T23:26:40.798Z,99030.03
2023-03-06T23:29:07.112Z,99022.28
2023-03-06T23:31:33.434Z,99015.31
2023-03-06T23:33:59.958Z,99015.38
2023-03-06T23:36:26.251Z,99010.53
2023-03-06T23:38:52.625Z,99020.72
2023-03-06T23:41:18.950Z,99007.97
2023-03-06T23:43:45.280Z,99014.59
2023-03-06T23:46:11.655Z,99000.00
2023-03-06T23:48:38.023Z,99003.44
2023-03-06T23:51:04.353Z,99008.63
2023-03-06T23:53:30.667Z,99002.31
2023-03-06T23:55:57.363Z,99001.69
2023-03-06T23:58:23.720Z,98996.66
